Time;durP1;ratioP1;P1;durP2;ratioP2;P2;SDS_P1;SDS_P2;PMS_P1;PMS_P2;Temp;Humidity;BMP_temperature;BMP_pressure;BME280_temperature;BME280_humidity;BME280_pressure;Samples;Min_cycle;Max_cycle;Signal;HPM_P1;HPM_P2
2023/12/25 00:01:04;;;;;;;0.20;0.20;;;;;;;8.91;87.11;96458.72;4997330;28;20046;-72
2023/12/25 00:03:32;;;;;;;0.30;0.30;;;;;;;8.91;87.03;96463.22;5001828;28;20054;-72
2023/12/25 00:06:15;;;;;;;0.25;0.25;;;;;;;8.90;87.02;96462.41;4996622;28;20038;-72
2023/12/25 00:08:43;;;;;;;0.20;0.20;;;;;;;8.93;87.36;96466.50;4993205;28;20034;-72
2023/12/25 00:11:11;;;;;;;0.20;0.20;;;;;;;8.89;87.30;96465.28;4992995;28;20132;-72
2023/12/25 00:13:39;;;;;;;0.20;0.20;;;;;;;8.95;87.05;96481.19;4984603;28;20490;-73
2023/12/25 00:16:06;;;;;;;0.20;0.20;;;;;;;8.89;86.96;96462.63;4992622;28;20050;-72
2023/12/25 00:18:34;;;;;;;0.47;0.47;;;;;;;8.93;86.97;96456.66;4994512;28;20506;-72
2023/12/25 00:21:02;;;;;;;0.30;0.30;;;;;;;8.97;85.74;96468.50;4998894;28;20047;-72
2023/12/25 00:23:30;;;;;;;0.20;0.20;;;;;;;8.96;85.95;96477.53;4993892;28;20133;-72
2023/12/25 00:25:58;;;;;;;0.22;0.22;;;;;;;8.98;86.19;96474.66;4992952;28;20097;-72
2023/12/25 00:28:26;;;;;;;0.20;0.20;;;;;;;8.96;86.22;96471.38;4992711;28;20054;-72
2023/12/25 00:30:53;;;;;;;0.30;0.30;;;;;;;8.99;85.96;96477.09;4993505;28;20038;-72
2023/12/25 00:33:21;;;;;;;0.20;0.20;;;;;;;9.00;85.84;96485.91;4992861;28;20060;-72
2023/12/25 00:35:49;;;;;;;0.30;0.30;;;;;;;8.94;86.38;96468.09;4993051;28;20049;-73
2023/12/25 00:38:16;;;;;;;0.40;0.40;;;;;;;8.95;86.17;96461.75;4993292;28;20050;-72
2023/12/25 00:40:45;;;;;;;0.20;0.20;;;;;;;8.90;86.46;96473.06;4992697;28;20046;-72
2023/12/25 00:43:13;;;;;;;0.43;0.43;;;;;;;8.90;86.37;96483.69;4992987;28;20497;-73
2023/12/25 00:45:41;;;;;;;0.30;0.30;;;;;;;8.92;86.43;96475.50;4994336;28;20576;-73
2023/12/25 00:48:08;;;;;;;0.28;0.28;;;;;;;8.95;86.27;96475.06;4993507;28;20057;-73
2023/12/25 00:50:36;;;;;;;0.47;0.47;;;;;;;8.94;86.37;96479.56;4991017;28;20034;-72
2023/12/25 00:53:04;;;;;;;0.20;0.20;;;;;;;8.90;86.24;96486.34;4993109;28;20057;-72
2023/12/25 00:55:32;;;;;;;0.28;0.28;;;;;;;8.92;86.31;96483.50;4992076;28;20485;-73
2023/12/25 00:58:01;;;;;;;0.28;0.28;;;;;;;8.91;85.98;96473.88;4992213;28;20046;-73
2023/12/25 01:00:29;;;;;;;0.20;0.20;;;;;;;8.89;86.48;96478.59;4992082;28;20038;-72
2023/12/25 01:02:57;;;;;;;0.17;0.17;;;;;;;8.87;86.24;96480.63;4991460;28;20046;-72
2023/12/25 01:05:25;;;;;;;0.30;0.30;;;;;;;8.90;86.24;96470.41;4987171;28;20042;-72
2023/12/25 01:07:52;;;;;;;0.13;0.13;;;;;;;8.92;85.86;96463.03;5001516;28;20132;-72
2023/12/25 01:10:20;;;;;;;0.28;0.28;;;;;;;8.92;85.87;96455.03;4990343;28;20050;-72
2023/12/25 01:12:48;;;;;;;0.30;0.30;;;;;;;8.95;85.69;96467.91;4992000;28;20049;-72
2023/12/25 01:15:17;;;;;;;0.20;0.20;;;;;;;8.96;85.59;96455.41;4990414;28;20089;-72
2023/12/25 01:17:44;;;;;;;0.30;0.30;;;;;;;8.97;85.88;96457.03;4993450;28;20053;-72
2023/12/25 01:20:12;;;;;;;0.10;0.10;;;;;;;8.91;85.91;96445.41;4991520;28;20443;-73
2023/12/25 01:22:40;;;;;;;0.30;0.30;;;;;;;8.81;86.59;96445.88;4982832;28;20042;-72
2023/12/25 01:25:08;;;;;;;0.25;0.25;;;;;;;8.84;86.44;96455.25;4991944;28;20042;-72
2023/12/25 01:27:39;;;;;;;0.30;0.30;;;;;;;8.80;86.51;96451.41;4992092;28;20418;-72
2023/12/25 01:30:08;;;;;;;0.38;0.38;;;;;;;8.87;86.85;96454.03;4992514;28;20065;-72
2023/12/25 01:32:37;;;;;;;0.30;0.30;;;;;;;8.83;86.75;96456.28;4988071;28;20068;-72
2023/12/25 01:35:05;;;;;;;0.20;0.20;;;;;;;8.80;87.04;96456.72;4991609;28;20525;-72
2023/12/25 01:37:33;;;;;;;0.30;0.30;;;;;;;8.77;87.22;96449.97;4990534;28;20486;-72
2023/12/25 01:40:01;;;;;;;0.30;0.30;;;;;;;8.76;87.15;96447.53;4990802;28;20044;-72
2023/12/25 01:42:28;;;;;;;0.20;0.20;;;;;;;8.77;86.98;96465.94;5005197;28;20135;-72
2023/12/25 01:44:56;;;;;;;0.30;0.30;;;;;;;8.80;87.03;96475.34;4991752;28;20133;-72
2023/12/25 01:47:24;;;;;;;0.30;0.30;;;;;;;8.80;86.71;96464.72;4991516;28;20409;-72
2023/12/25 01:49:53;;;;;;;0.15;0.15;;;;;;;8.76;86.40;96464.31;4991559;28;20078;-72
2023/12/25 01:52:21;;;;;;;0.30;0.30;;;;;;;8.86;86.59;96485.13;4991340;28;20039;-72
2023/12/25 01:54:49;;;;;;;0.20;0.20;;;;;;;8.77;86.76;96478.44;4995194;28;20050;-72
2023/12/25 01:57:17;;;;;;;0.30;0.30;;;;;;;8.77;86.47;96468.59;4990516;28;20054;-73
2023/12/25 01:59:45;;;;;;;0.30;0.30;;;;;;;8.81;86.35;96471.66;4991434;28;20387;-72
2023/12/25 02:02:13;;;;;;;0.20;0.20;;;;;;;8.82;86.21;96481.28;4991761;28;20128;-73
2023/12/25 02:04:41;;;;;;;0.30;0.30;;;;;;;8.83;85.85;96467.75;4995429;28;20093;-73
2023/12/25 02:07:11;;;;;;;0.15;0.15;;;;;;;8.90;85.22;96488.19;4994413;28;20057;-73
2023/12/25 02:09:38;;;;;;;0.20;0.20;;;;;;;8.82;85.68;96487.38;4996233;28;20472;-72
2023/12/25 02:12:06;;;;;;;0.30;0.30;;;;;;;8.84;85.51;96487.19;5000224;28;20050;-72
2023/12/25 02:14:34;;;;;;;0.30;0.30;;;;;;;8.87;85.67;96500.06;4995515;28;20058;-72
2023/12/25 02:17:02;;;;;;;0.22;0.22;;;;;;;8.81;86.21;96490.28;4998176;28;20042;-73
2023/12/25 02:19:35;;;;;;;0.22;0.22;;;;;;;8.81;85.99;96487.63;5003684;28;20088;-72
2023/12/25 02:22:02;;;;;;;;;;;;;;;8.79;86.34;96498.47;5001970;28;20046;-72
2023/12/25 02:24:31;;;;;;;0.20;0.20;;;;;;;8.84;85.94;96487.19;4995627;28;19929;-73
2023/12/25 02:27:02;;;;;;;0.35;0.35;;;;;;;8.76;86.47;96474.13;4995823;28;20498;-73
2023/12/25 02:29:29;;;;;;;0.10;0.10;;;;;;;8.72;86.61;96464.97;4996733;28;20054;-72
2023/12/25 02:31:57;;;;;;;0.20;0.20;;;;;;;8.71;86.75;96482.75;4994596;28;20096;-72
2023/12/25 02:34:25;;;;;;;0.20;0.20;;;;;;;8.73;86.75;96472.69;4994275;28;20065;-72
2023/12/25 02:36:52;;;;;;;0.30;0.30;;;;;;;8.73;86.91;96459.41;4994440;28;20038;-72
2023/12/25 02:39:20;;;;;;;0.20;0.20;;;;;;;8.64;87.26;96473.16;4992866;28;20050;-73
2023/12/25 02:41:48;;;;;;;0.20;0.20;;;;;;;8.67;87.05;96467.41;4994324;28;20049;-72
2023/12/25 02:44:17;;;;;;;0.20;0.20;;;;;;;8.74;86.75;96486.81;4993702;28;20525;-72
2023/12/25 02:46:44;;;;;;;0.15;0.15;;;;;;;8.75;86.53;96475.97;4989373;28;20049;-73
2023/12/25 02:49:12;;;;;;;0.30;0.30;;;;;;;8.73;86.56;96498.47;4994756;28;20042;-72
2023/12/25 02:51:40;;;;;;;0.20;0.20;;;;;;;8.70;86.48;96478.47;4994548;28;20501;-72
2023/12/25 02:54:07;;;;;;;0.30;0.30;;;;;;;8.68;86.76;96491.16;4995138;28;20053;-72
2023/12/25 02:56:36;;;;;;;0.30;0.30;;;;;;;8.64;86.51;96495.25;5002370;28;20143;-72
2023/12/25 02:59:05;;;;;;;0.20;0.20;;;;;;;8.64;86.69;96500.56;4995598;28;20054;-72
2023/12/25 03:01:34;;;;;;;0.20;0.20;;;;;;;8.65;86.91;96501.38;4996960;28;20125;-73
2023/12/25 03:04:02;;;;;;;0.35;0.35;;;;;;;8.64;86.85;96499.75;4995292;28;20050;-72
2023/12/25 03:06:30;;;;;;;0.20;0.20;;;;;;;8.65;86.83;96509.34;4996247;28;20134;-72
2023/12/25 03:08:57;;;;;;;0.10;0.10;;;;;;;8.63;86.67;96504.25;4994273;28;20049;-72
2023/12/25 03:11:25;;;;;;;0.40;0.40;;;;;;;8.61;86.72;96495.69;4996279;28;20118;-72
2023/12/25 03:13:53;;;;;;;0.25;0.25;;;;;;;8.60;86.97;96494.03;4995036;28;20104;-72
2023/12/25 03:16:20;;;;;;;0.30;0.30;;;;;;;8.58;86.95;96508.56;4999751;28;20348;-72
2023/12/25 03:18:49;;;;;;;0.22;0.22;;;;;;;8.62;86.90;96502.59;4993819;28;20452;-72
2023/12/25 03:21:18;;;;;;;0.20;0.20;;;;;;;8.56;87.26;96484.84;4990852;28;20458;-73
2023/12/25 03:23:46;;;;;;;0.30;0.30;;;;;;;8.57;87.07;96483.00;4992567;28;20054;-72
2023/12/25 03:26:14;;;;;;;0.20;0.20;;;;;;;8.52;87.64;96483.63;4994322;28;20082;-72
2023/12/25 03:28:41;;;;;;;0.55;0.55;;;;;;;8.52;87.91;96491.59;4996082;28;20117;-72
2023/12/25 03:31:09;;;;;;;0.40;0.40;;;;;;;8.50;88.10;96498.97;4993005;28;20045;-71
2023/12/25 03:33:37;;;;;;;0.20;0.20;;;;;;;8.50;88.16;96512.28;4993158;28;20152;-71
2023/12/25 03:36:08;;;;;;;0.20;0.20;;;;;;;8.49;88.31;96513.31;4993833;28;20043;-72
2023/12/25 03:38:35;;;;;;;0.30;0.30;;;;;;;8.51;87.84;96529.06;4993979;28;20057;-71
2023/12/25 03:41:04;;;;;;;0.25;0.25;;;;;;;8.53;88.25;96513.69;4993542;28;20038;-71
2023/12/25 03:43:32;;;;;;;0.30;0.30;;;;;;;8.50;88.71;96512.28;4996827;28;20048;-71
2023/12/25 03:45:59;;;;;;;0.60;0.60;;;;;;;8.49;88.83;96500.00;5004324;28;20050;-71
2023/12/25 03:48:27;;;;;;;0.30;0.30;;;;;;;8.43;88.92;96514.94;4996610;28;20490;-71
2023/12/25 03:50:55;;;;;;;0.30;0.30;;;;;;;8.38;89.37;96511.28;4993841;28;20042;-71
2023/12/25 03:53:24;;;;;;;0.30;0.30;;;;;;;8.42;89.15;96507.97;4993410;28;20046;-71
2023/12/25 03:55:52;;;;;;;0.28;0.28;;;;;;;8.40;89.55;96487.97;4993592;28;20078;-71
2023/12/25 03:58:19;;;;;;;0.20;0.20;;;;;;;8.41;89.49;96489.56;4994304;28;20046;-71
2023/12/25 04:00:47;;;;;;;0.20;0.20;;;;;;;8.43;89.32;96501.63;4992710;28;20038;-73
2023/12/25 04:03:13;;;;;;;0.30;0.30;;;;;;;8.42;89.26;96497.34;4993301;28;20110;-73
2023/12/25 04:05:42;;;;;;;0.30;0.30;;;;;;;8.45;89.36;96494.28;4991649;28;20053;-73
2023/12/25 04:08:09;;;;;;;0.30;0.30;;;;;;;8.46;89.35;96476.47;4993187;28;20074;-71
2023/12/25 04:10:38;;;;;;;0.10;0.10;;;;;;;8.42;89.48;96476.06;4997423;28;20108;-72
2023/12/25 04:13:06;;;;;;;0.30;0.30;;;;;;;8.38;90.08;96474.06;4988800;28;20406;-73
2023/12/25 04:15:33;;;;;;;0.20;0.20;;;;;;;8.37;90.08;96467.91;4992652;28;20046;-73
2023/12/25 04:18:01;;;;;;;0.30;0.30;;;;;;;8.34;89.93;96464.84;4992309;28;20057;-73
2023/12/25 04:20:29;;;;;;;0.30;0.30;;;;;;;8.38;89.78;96474.88;4988954;28;20060;-71
2023/12/25 04:22:56;;;;;;;0.30;0.30;;;;;;;8.41;89.25;96457.66;4991552;28;20516;-71
2023/12/25 04:25:24;;;;;;;0.35;0.35;;;;;;;8.40;89.43;96488.78;4991317;28;20050;-73
2023/12/25 04:27:53;;;;;;;0.25;0.25;;;;;;;8.42;88.94;96488.53;4992249;28;20042;-71
2023/12/25 04:30:22;;;;;;;0.20;0.20;;;;;;;8.51;88.61;96492.66;4990042;28;20438;-72
2023/12/25 04:32:49;;;;;;;0.13;0.13;;;;;;;8.51;88.22;96465.22;5007204;28;20178;-71
2023/12/25 04:35:17;;;;;;;0.38;0.38;;;;;;;8.53;88.19;96484.44;4992393;28;20137;-71
2023/12/25 04:37:46;;;;;;;0.22;0.22;;;;;;;8.50;88.51;96487.53;4990985;28;20524;-71
2023/12/25 04:40:14;;;;;;;0.20;0.20;;;;;;;8.52;88.12;96491.59;4990879;28;20050;-73
2023/12/25 04:42:41;;;;;;;0.20;0.20;;;;;;;8.60;87.08;96477.28;4990543;28;20080;-71
2023/12/25 04:45:11;;;;;;;0.13;0.13;;;;;;;8.56;87.65;96481.38;4990941;28;20104;-71
2023/12/25 04:47:38;;;;;;;0.30;0.30;;;;;;;8.56;87.92;96474.19;4991612;28;20092;-71
2023/12/25 04:50:07;;;;;;;0.30;0.30;;;;;;;8.54;87.65;96483.41;4993472;28;20050;-71
2023/12/25 04:52:36;;;;;;;0.20;0.20;;;;;;;8.56;87.28;96481.38;4993131;28;20576;-71
2023/12/25 04:55:04;;;;;;;0.25;0.25;;;;;;;8.68;86.78;96485.00;4993583;28;20054;-71
2023/12/25 04:57:33;;;;;;;0.20;0.20;;;;;;;8.60;87.03;96479.94;4991502;28;20108;-76
2023/12/25 05:00:03;;;;;;;0.20;0.20;;;;;;;8.63;86.98;96480.31;4991022;28;20098;-72
2023/12/25 05:02:31;;;;;;;0.25;0.25;;;;;;;8.64;86.57;96492.59;4990402;28;20052;-72
2023/12/25 05:04:59;;;;;;;0.25;0.25;;;;;;;8.68;86.31;96488.50;5003678;28;20077;-75
2023/12/25 05:07:27;;;;;;;0.30;0.30;;;;;;;8.63;86.62;96496.25;4991711;28;20057;-72
2023/12/25 05:09:54;;;;;;;0.63;0.63;;;;;;;8.59;86.84;96503.03;4992930;28;20144;-71
2023/12/25 05:12:22;;;;;;;0.30;0.30;;;;;;;8.61;86.80;96484.22;4989506;28;20522;-71
2023/12/25 05:14:50;;;;;;;0.20;0.20;;;;;;;8.66;86.53;96484.41;4990305;28;20056;-70
2023/12/25 05:17:18;;;;;;;0.20;0.20;;;;;;;8.70;86.60;96469.66;4991813;28;20053;-70
2023/12/25 05:19:47;;;;;;;0.22;0.22;;;;;;;8.71;86.23;96481.94;4991472;28;20050;-71
2023/12/25 05:22:16;;;;;;;0.30;0.30;;;;;;;8.71;86.06;96495.25;4990171;28;20130;-74
2023/12/25 05:24:43;;;;;;;0.30;0.30;;;;;;;8.65;86.48;96496.06;4991491;28;20050;-71
2023/12/25 05:27:11;;;;;;;0.20;0.20;;;;;;;8.70;86.65;96512.22;4991979;28;20558;-70
2023/12/25 05:29:38;;;;;;;0.40;0.40;;;;;;;8.71;86.62;96500.56;4991417;28;20052;-71
2023/12/25 05:32:06;;;;;;;0.35;0.35;;;;;;;8.78;86.00;96491.53;4993099;28;20449;-71
2023/12/25 05:34:34;;;;;;;0.25;0.25;;;;;;;8.80;85.68;96494.78;4991683;28;20042;-72
2023/12/25 05:37:03;;;;;;;0.25;0.25;;;;;;;8.78;85.83;96510.13;4991385;28;20046;-71
2023/12/25 05:39:31;;;;;;;0.30;0.30;;;;;;;8.80;86.02;96508.09;4990610;28;20060;-71
2023/12/25 05:41:58;;;;;;;0.20;0.20;;;;;;;8.84;85.55;96506.63;4995205;28;20470;-70
2023/12/25 05:44:26;;;;;;;0.10;0.10;;;;;;;8.77;85.90;96497.88;4995089;28;20050;-71
2023/12/25 05:46:54;;;;;;;0.20;0.20;;;;;;;8.77;85.87;96499.72;4990489;28;20046;-71
2023/12/25 05:49:21;;;;;;;0.20;0.20;;;;;;;8.79;85.64;96503.78;4995196;28;20046;-71
2023/12/25 05:51:49;;;;;;;0.20;0.20;;;;;;;8.84;85.54;96498.66;4994843;28;20046;-71
2023/12/25 05:54:18;;;;;;;0.30;0.30;;;;;;;8.86;85.14;96510.94;4995013;28;20057;-71
2023/12/25 05:56:45;;;;;;;0.20;0.20;;;;;;;8.82;85.58;96503.34;4994728;28;20049;-71
2023/12/25 05:59:14;;;;;;;0.22;0.22;;;;;;;8.81;85.33;96488.44;4995029;28;20129;-71
2023/12/25 06:01:41;;;;;;;0.20;0.20;;;;;;;8.83;85.80;96501.50;4994737;28;20042;-72
2023/12/25 06:04:09;;;;;;;0.20;0.20;;;;;;;8.81;85.68;96499.09;4995135;28;20046;-71
2023/12/25 06:06:37;;;;;;;0.28;0.28;;;;;;;8.86;85.69;96486.97;4994744;28;20057;-71
2023/12/25 06:09:04;;;;;;;0.30;0.30;;;;;;;8.84;85.67;96492.50;4995377;28;20046;-74
2023/12/25 06:11:35;;;;;;;0.22;0.22;;;;;;;8.83;85.74;96499.66;4993628;28;20057;-71
2023/12/25 06:14:03;;;;;;;0.13;0.13;;;;;;;8.77;86.18;96494.38;4993911;28;20050;-71
2023/12/25 06:16:31;;;;;;;0.20;0.20;;;;;;;8.79;86.26;96500.31;4994694;28;20042;-71
2023/12/25 06:18:59;;;;;;;0.15;0.15;;;;;;;8.72;86.39;96494.22;4993719;28;20035;-71
2023/12/25 06:21:26;;;;;;;0.30;0.30;;;;;;;8.71;86.24;96506.69;4992955;28;20394;-71
2023/12/25 06:23:54;;;;;;;0.20;0.20;;;;;;;8.72;85.81;96505.66;4993421;28;20046;-72
2023/12/25 06:26:22;;;;;;;0.30;0.30;;;;;;;8.72;86.00;96505.66;4994716;28;20232;-71
2023/12/25 06:28:51;;;;;;;0.20;0.20;;;;;;;8.70;85.77;96499.75;4994477;28;20054;-72
2023/12/25 06:31:19;;;;;;;0.30;0.30;;;;;;;8.75;85.76;96493.78;4994452;28;20065;-71
2023/12/25 06:33:46;;;;;;;0.20;0.20;;;;;;;8.82;84.86;96507.88;4994075;28;20229;-72
2023/12/25 06:36:14;;;;;;;0.25;0.25;;;;;;;8.79;85.02;96511.78;4991525;28;20038;-72
2023/12/25 06:38:42;;;;;;;0.30;0.30;;;;;;;8.87;84.86;96518.69;4994349;28;20050;-71
2023/12/25 06:41:10;;;;;;;0.20;0.20;;;;;;;8.89;84.39;96519.31;4990454;28;20046;-72
2023/12/25 06:43:38;;;;;;;0.30;0.30;;;;;;;8.90;84.66;96528.13;4993869;28;20052;-71
2023/12/25 06:46:07;;;;;;;0.20;0.20;;;;;;;8.86;84.78;96508.25;4994381;28;20168;-72
2023/12/25 06:48:35;;;;;;;0.10;0.10;;;;;;;8.87;84.90;96523.19;4994107;28;20089;-72
2023/12/25 06:51:03;;;;;;;0.40;0.40;;;;;;;8.90;84.62;96526.28;4994467;28;20057;-72
2023/12/25 06:53:31;;;;;;;0.28;0.28;;;;;;;8.92;84.61;96536.72;4990511;28;20069;-73
2023/12/25 06:55:58;;;;;;;0.20;0.20;;;;;;;8.97;84.37;96543.03;4994059;28;20042;-71
2023/12/25 06:58:26;;;;;;;0.10;0.10;;;;;;;8.98;84.76;96547.31;4993626;28;20034;-71
2023/12/25 07:00:53;;;;;;;0.20;0.20;;;;;;;8.96;84.69;96536.06;4993976;28;20050;-72
2023/12/25 07:03:22;;;;;;;0.30;0.30;;;;;;;8.98;84.44;96535.84;4989158;28;20072;-72
2023/12/25 07:05:50;;;;;;;0.30;0.30;;;;;;;8.95;85.07;96554.91;4993796;28;20042;-72
2023/12/25 07:08:18;;;;;;;0.25;0.25;;;;;;;8.90;85.16;96565.38;4994179;28;20052;-71
2023/12/25 07:10:46;;;;;;;0.20;0.20;;;;;;;8.87;85.24;96563.94;4989763;28;20144;-72
2023/12/25 07:13:15;;;;;;;0.28;0.28;;;;;;;8.83;85.73;96560.03;4993915;28;20046;-71
2023/12/25 07:15:43;;;;;;;0.20;0.20;;;;;;;8.83;86.18;96560.03;4993929;28;20045;-72
2023/12/25 07:18:11;;;;;;;0.28;0.28;;;;;;;8.79;86.27;96564.16;5001150;28;20085;-71
2023/12/25 07:20:40;;;;;;;0.22;0.22;;;;;;;8.80;85.79;96565.81;4994269;28;20459;-72
2023/12/25 07:23:08;;;;;;;0.30;0.30;;;;;;;8.79;85.50;96580.94;4993912;28;20038;-71
2023/12/25 07:25:35;;;;;;;0.20;0.20;;;;;;;8.75;85.75;96584.22;4993715;28;20052;-71
2023/12/25 07:28:03;;;;;;;0.30;0.30;;;;;;;8.76;85.76;96573.38;4993886;28;20080;-71
2023/12/25 07:30:30;;;;;;;0.20;0.20;;;;;;;8.79;85.50;96583.59;4997723;28;20050;-71
2023/12/25 07:32:58;;;;;;;0.20;0.20;;;;;;;8.73;85.93;96581.75;4994566;28;20045;-71
2023/12/25 07:35:27;;;;;;;0.15;0.15;;;;;;;8.76;85.52;96594.66;4996808;28;20047;-72
2023/12/25 07:37:56;;;;;;;0.30;0.30;;;;;;;8.74;85.53;96596.69;4997597;28;20104;-71
2023/12/25 07:40:24;;;;;;;0.28;0.28;;;;;;;8.71;85.54;96596.31;4997223;28;20577;-72
2023/12/25 07:42:53;;;;;;;0.20;0.20;;;;;;;8.71;85.70;96602.47;4993494;28;20121;-71
2023/12/25 07:45:21;;;;;;;0.47;0.47;;;;;;;8.75;85.34;96587.69;4993647;28;20046;-71
2023/12/25 07:47:48;;;;;;;0.25;0.25;;;;;;;8.80;85.33;96600.38;4997458;28;20498;-71
2023/12/25 07:50:16;;;;;;;0.30;0.30;;;;;;;8.79;85.38;96593.44;4993466;28;20054;-71
2023/12/25 07:52:44;;;;;;;0.20;0.20;;;;;;;8.82;85.18;96599.13;4991065;28;20042;-73
2023/12/25 07:55:13;;;;;;;0.20;0.20;;;;;;;8.89;84.84;96599.13;4987990;28;20049;-73
2023/12/25 07:57:40;;;;;;;0.10;0.10;;;;;;;8.86;85.07;96596.06;4994419;28;20064;-73
2023/12/25 08:00:10;;;;;;;0.35;0.35;;;;;;;8.80;84.77;96571.13;4997498;28;20049;-72
2023/12/25 08:02:40;;;;;;;0.25;0.25;;;;;;;8.76;84.81;96593.84;4994385;28;20050;-72
2023/12/25 08:05:08;;;;;;;0.10;0.10;;;;;;;8.75;85.07;96608.97;4991911;28;20073;-71
2023/12/25 08:07:36;;;;;;;0.17;0.17;;;;;;;8.76;84.88;96617.78;4993012;28;20121;-71
2023/12/25 08:10:03;;;;;;;0.20;0.20;;;;;;;8.81;84.97;96610.00;4992963;28;20451;-71
2023/12/25 08:12:33;;;;;;;0.30;0.30;;;;;;;8.84;84.75;96625.53;4992800;28;20121;-71
2023/12/25 08:15:00;;;;;;;0.30;0.30;;;;;;;8.81;84.85;96634.78;4992759;28;20042;-71
2023/12/25 08:17:28;;;;;;;0.30;0.30;;;;;;;8.81;84.86;96632.13;4993769;28;20524;-71
2023/12/25 08:19:56;;;;;;;0.25;0.25;;;;;;;8.81;85.24;96633.97;4995254;28;20053;-73
2023/12/25 08:22:23;;;;;;;0.20;0.20;;;;;;;8.86;85.06;96634.13;4996187;28;20122;-71
2023/12/25 08:24:51;;;;;;;0.35;0.35;;;;;;;8.82;85.19;96636.38;4992550;28;20046;-71
2023/12/25 08:27:19;;;;;;;0.20;0.20;;;;;;;8.80;85.49;96649.09;4992400;28;20505;-73
2023/12/25 08:29:48;;;;;;;0.20;0.20;;;;;;;8.75;85.24;96653.38;4992115;28;20043;-72
2023/12/25 08:32:15;;;;;;;0.20;0.20;;;;;;;8.73;85.33;96648.28;4992568;28;20054;-70
2023/12/25 08:34:43;;;;;;;0.20;0.20;;;;;;;8.71;85.92;96662.81;4992804;28;20042;-71
2023/12/25 08:37:10;;;;;;;0.30;0.30;;;;;;;8.73;85.85;96658.91;4993786;28;20050;-71
2023/12/25 08:39:38;;;;;;;0.20;0.20;;;;;;;8.70;86.00;96662.00;4995559;28;20046;-70
2023/12/25 08:42:06;;;;;;;0.30;0.30;;;;;;;8.74;85.75;96665.06;4989399;28;20523;-71
2023/12/25 08:44:34;;;;;;;0.20;0.20;;;;;;;8.75;85.96;96661.38;4992406;28;20065;-71
2023/12/25 08:47:04;;;;;;;0.50;0.50;;;;;;;8.69;85.80;96676.31;4988400;28;20050;-71
2023/12/25 08:49:31;;;;;;;0.20;0.20;;;;;;;8.68;85.99;96650.75;4992764;28;20057;-72
2023/12/25 08:51:59;;;;;;;0.35;0.35;;;;;;;8.66;85.91;96668.75;4992946;28;20453;-71
2023/12/25 08:54:27;;;;;;;0.30;0.30;;;;;;;8.69;85.92;96681.66;4992467;28;20042;-71
2023/12/25 08:56:55;;;;;;;0.50;0.50;;;;;;;8.71;85.62;96678.78;4984294;28;20097;-71
2023/12/25 08:59:22;;;;;;;0.20;0.20;;;;;;;8.80;85.40;96693.50;4992305;28;20124;-71
2023/12/25 09:01:52;;;;;;;0.30;0.30;;;;;;;8.82;85.68;96691.47;4999405;28;20070;-71
2023/12/25 09:04:21;;;;;;;0.30;0.30;;;;;;;8.76;85.79;96681.63;4991965;28;20058;-71
2023/12/25 09:06:48;;;;;;;0.20;0.20;;;;;;;8.77;85.73;96692.06;4990209;28;20048;-71
2023/12/25 09:09:16;;;;;;;0.20;0.20;;;;;;;8.68;86.02;96693.31;4992315;28;20111;-71
2023/12/25 09:11:46;;;;;;;0.30;0.30;;;;;;;8.68;86.11;96690.66;4996199;28;20046;-71
2023/12/25 09:14:14;;;;;;;0.20;0.20;;;;;;;8.62;86.58;96680.81;4994349;28;20129;-72
2023/12/25 09:16:41;;;;;;;0.30;0.30;;;;;;;8.62;86.84;96687.97;4996277;28;20050;-71
2023/12/25 09:19:09;;;;;;;0.20;0.20;;;;;;;8.63;86.49;96677.13;4993661;28;20057;-71
2023/12/25 09:21:39;;;;;;;0.20;0.20;;;;;;;8.64;85.93;96673.44;4991615;28;20074;-71
2023/12/25 09:24:06;;;;;;;0.50;0.50;;;;;;;8.65;85.92;96685.72;4991828;28;20052;-71
2023/12/25 09:26:35;;;;;;;0.22;0.22;;;;;;;8.66;85.97;96687.38;4991881;28;20125;-71
2023/12/25 09:29:02;;;;;;;0.20;0.20;;;;;;;8.65;85.83;96684.91;4992210;28;20046;-70
2023/12/25 09:31:30;;;;;;;0.22;0.22;;;;;;;8.63;86.08;96682.44;4993952;28;20065;-71
2023/12/25 09:33:58;;;;;;;0.22;0.22;;;;;;;8.61;86.19;96687.19;4995388;28;20502;-70
2023/12/25 09:36:26;;;;;;;0.20;0.20;;;;;;;8.67;85.80;96690.84;4995352;28;20042;-70
2023/12/25 09:38:55;;;;;;;0.17;0.17;;;;;;;8.66;86.04;96686.53;4992003;28;20050;-74
2023/12/25 09:41:24;;;;;;;0.20;0.20;;;;;;;8.65;86.26;96701.69;4994264;28;20044;-74
2023/12/25 09:43:53;;;;;;;0.35;0.35;;;;;;;8.69;86.00;96694.13;4991623;28;20057;-70
2023/12/25 09:46:20;;;;;;;0.30;0.30;;;;;;;8.70;85.69;96690.44;4989690;28;20124;-71
2023/12/25 09:48:48;;;;;;;0.35;0.35;;;;;;;8.67;85.66;96690.84;4992244;28;20084;-73
2023/12/25 09:51:17;;;;;;;0.22;0.22;;;;;;;8.65;85.63;96700.88;4994241;28;20092;-72
2023/12/25 09:53:45;;;;;;;0.20;0.20;;;;;;;8.71;85.56;96689.44;4993030;28;20140;-71
2023/12/25 09:56:16;;;;;;;0.30;0.30;;;;;;;8.72;85.54;96691.84;4992590;28;20046;-72
2023/12/25 09:58:44;;;;;;;0.17;0.17;;;;;;;8.66;85.61;96679.38;4996960;28;20053;-71
2023/12/25 10:01:13;;;;;;;0.20;0.20;;;;;;;8.63;85.32;96668.31;4991407;28;20061;-71
2023/12/25 10:03:45;;;;;;;0.25;0.25;;;;;;;8.65;85.58;96668.94;4996208;28;20038;-72
2023/12/25 10:06:13;;;;;;;0.20;0.20;;;;;;;8.64;85.39;96652.16;4992233;28;20129;-71
2023/12/25 10:08:40;;;;;;;0.30;0.30;;;;;;;8.66;84.79;96657.28;4995416;28;20393;-71
2023/12/25 10:11:13;;;;;;;0.30;0.30;;;;;;;8.68;84.89;96661.38;4997163;28;20050;-71
2023/12/25 10:13:42;;;;;;;0.30;0.30;;;;;;;8.75;84.53;96658.72;4985896;28;20452;-72
2023/12/25 10:16:10;;;;;;;0.20;0.20;;;;;;;8.74;84.48;96655.22;4996978;28;20058;-71
2023/12/25 10:18:38;;;;;;;0.30;0.30;;;;;;;8.77;84.25;96654.81;4991228;28;20046;-71
2023/12/25 10:21:09;;;;;;;0.20;0.20;;;;;;;8.79;83.99;96657.28;4992046;28;20054;-71
2023/12/25 10:23:37;;;;;;;0.30;0.30;;;;;;;8.78;83.66;96664.44;4991019;28;20046;-72
2023/12/25 10:26:06;;;;;;;0.15;0.15;;;;;;;8.85;83.73;96656.44;4995050;28;20039;-72
2023/12/25 10:28:34;;;;;;;0.20;0.20;;;;;;;8.83;83.81;96647.84;4994156;28;20042;-72
2023/12/25 10:31:06;;;;;;;0.25;0.25;;;;;;;8.91;83.28;96646.84;4999281;28;20046;-71
2023/12/25 10:33:36;;;;;;;0.40;0.40;;;;;;;8.91;83.35;96639.66;4994706;28;20074;-71
2023/12/25 10:36:06;;;;;;;0.30;0.30;;;;;;;8.86;83.71;96631.47;4996719;28;20437;-72
2023/12/25 10:38:35;;;;;;;0.20;0.20;;;;;;;8.86;83.29;96651.94;4998220;28;20073;-72
2023/12/25 10:41:19;;;;;;;0.20;0.20;;;;;;;8.82;83.52;96651.56;4997882;28;20441;-71
2023/12/25 10:43:52;;;;;;;0.40;0.40;;;;;;;8.82;83.43;96670.97;5001994;28;20524;-71
2023/12/25 10:46:22;;;;;;;0.28;0.28;;;;;;;8.86;82.93;96681.22;4994390;28;20046;-71
2023/12/25 10:48:51;;;;;;;0.30;0.30;;;;;;;8.91;82.98;96670.78;4994830;28;20549;-71
2023/12/25 10:51:25;;;;;;;0.22;0.22;;;;;;;8.92;82.88;96683.06;4995679;28;20046;-71
2023/12/25 10:53:53;;;;;;;0.28;0.28;;;;;;;8.88;83.02;96682.66;4994753;28;20042;-72
2023/12/25 10:56:24;;;;;;;0.30;0.30;;;;;;;8.92;82.85;96683.88;4994729;28;20042;-72
2023/12/25 10:58:52;;;;;;;0.30;0.30;;;;;;;8.91;82.55;96676.94;4994353;28;20042;-72
2023/12/25 11:01:24;;;;;;;0.10;0.10;;;;;;;8.90;82.73;96669.97;4995091;28;20052;-72
2023/12/25 11:03:52;;;;;;;0.30;0.30;;;;;;;8.92;82.45;96657.28;4991943;28;20532;-72
2023/12/25 11:06:21;;;;;;;0.20;0.20;;;;;;;8.92;82.17;96672.41;5001808;28;20042;-71
2023/12/25 11:08:49;;;;;;;0.20;0.20;;;;;;;8.91;82.50;96668.94;4995309;28;20069;-72
2023/12/25 11:11:17;;;;;;;0.35;0.35;;;;;;;8.92;82.23;96672.41;5039699;22;20041;-75
2023/12/25 11:13:44;;;;;;;0.22;0.22;;;;;;;8.91;82.36;96668.94;5032630;28;20064;-75
2023/12/25 11:16:12;;;;;;;0.30;0.30;;;;;;;8.90;82.56;96679.78;5033318;28;20045;-75
2023/12/25 11:18:41;;;;;;;0.20;0.20;;;;;;;8.90;82.80;96682.44;5032912;28;20050;-73
2023/12/25 11:21:12;;;;;;;0.30;0.30;;;;;;;8.97;82.62;96661.97;5033031;28;20107;-75
2023/12/25 11:23:40;;;;;;;0.30;0.30;;;;;;;8.93;82.51;96664.19;5032689;28;20124;-75
2023/12/25 11:26:12;;;;;;;0.20;0.20;;;;;;;8.94;82.29;96673.81;5033275;28;20056;-76
2023/12/25 11:28:42;;;;;;;0.15;0.15;;;;;;;8.95;82.01;96669.31;5031272;28;20468;-76
2023/12/25 11:31:14;;;;;;;0.20;0.20;;;;;;;8.96;82.10;96687.75;5032646;28;20045;-75
2023/12/25 11:33:44;;;;;;;0.30;0.30;;;;;;;8.95;82.25;96688.78;5032670;28;20050;-75
2023/12/25 11:36:13;;;;;;;0.30;0.30;;;;;;;8.94;82.35;96681.00;5032741;28;20500;-75
2023/12/25 11:38:42;;;;;;;0.20;0.20;;;;;;;8.94;82.52;96663.19;5032382;28;20049;-75
2023/12/25 11:41:16;;;;;;;0.35;0.35;;;;;;;8.95;81.72;96656.03;5032474;28;20037;-75
2023/12/25 11:43:44;;;;;;;0.30;0.30;;;;;;;8.96;82.00;96660.31;5032171;28;20049;-73
2023/12/25 11:46:16;;;;;;;0.25;0.25;;;;;;;8.95;82.22;96682.63;5032815;28;20045;-73